Time;durP1;ratioP1;P1;durP2;ratioP2;P2;SDS_P1;SDS_P2;PMS_P1;PMS_P2;Temp;Humidity;BMP_temperature;BMP_pressure;BME280_temperature;BME280_humidity;BME280_pressure;Samples;Min_cycle;Max_cycle;Signal;HPM_P1;HPM_P2
2021/06/23 00:01:28;;;;;;;0.50;0.50;;;15.00;75.20;;;;;;5082727;28;20031;-77
2021/06/23 00:03:53;;;;;;;0.55;0.40;;;15.10;75.30;;;;;;5073479;28;20028;-77
2021/06/23 00:06:19;;;;;;;0.47;0.35;;;15.00;75.20;;;;;;5074806;28;20032;-77
2021/06/23 00:08:45;;;;;;;0.60;0.50;;;15.00;74.70;;;;;;5075085;28;20020;-77
2021/06/23 00:11:10;;;;;;;0.50;0.40;;;15.00;74.60;;;;;;5073005;28;20031;-77
2021/06/23 00:13:36;;;;;;;0.35;0.35;;;15.00;74.40;;;;;;5075101;28;20631;-77
2021/06/23 00:16:06;;;;;;;0.60;0.47;;;15.00;74.30;;;;;;5076745;28;20028;-77
2021/06/23 00:18:32;;;;;;;0.33;0.33;;;14.90;74.60;;;;;;5075148;28;20029;-77
2021/06/23 00:20:57;;;;;;;0.60;0.50;;;14.90;74.30;;;;;;5058554;28;20056;-77
2021/06/23 00:23:23;;;;;;;0.40;0.40;;;14.90;74.60;;;;;;5058630;28;20102;-77
2021/06/23 00:25:49;;;;;;;0.63;0.50;;;14.90;74.50;;;;;;5058456;28;20032;-77
2021/06/23 00:28:15;;;;;;;0.50;0.40;;;14.90;74.40;;;;;;5073640;28;20040;-77
2021/06/23 00:30:41;;;;;;;0.50;0.40;;;14.90;74.40;;;;;;5069284;28;20016;-77
2021/06/23 00:33:09;;;;;;;0.50;0.40;;;14.90;74.20;;;;;;5077063;28;20491;-77
2021/06/23 00:35:35;;;;;;;0.30;0.30;;;14.90;74.30;;;;;;5078384;28;20028;-77
2021/06/23 00:38:01;;;;;;;0.50;0.40;;;14.90;74.30;;;;;;5059667;28;20048;-77
2021/06/23 00:40:27;;;;;;;0.45;0.40;;;14.80;74.10;;;;;;5058311;28;20025;-77
2021/06/23 00:42:53;;;;;;;0.60;0.40;;;14.80;74.10;;;;;;5058369;28;20040;-77
2021/06/23 00:45:20;;;;;;;0.50;0.40;;;14.90;74.10;;;;;;5076839;28;20040;-77
2021/06/23 00:47:47;;;;;;;0.40;0.40;;;14.80;74.50;;;;;;5078178;28;20478;-77
2021/06/23 00:50:14;;;;;;;0.40;0.40;;;14.80;74.20;;;;;;5072058;28;20025;-77
2021/06/23 00:52:41;;;;;;;0.45;0.40;;;14.80;74.30;;;;;;5056792;28;20064;-77
2021/06/23 00:55:07;;;;;;;1.00;0.40;;;14.70;74.20;;;;;;5057962;28;20021;-77
2021/06/23 00:57:33;;;;;;;0.47;0.30;;;14.70;74.00;;;;;;5057830;28;20043;-76
2021/06/23 01:00:00;;;;;;;0.40;0.40;;;14.70;74.10;;;;;;5086549;28;20036;-77
2021/06/23 01:02:27;;;;;;;0.55;0.40;;;14.70;74.10;;;;;;5096745;28;20020;-77
2021/06/23 01:04:54;;;;;;;0.50;0.40;;;14.70;74.00;;;;;;5063485;28;20380;-77
2021/06/23 01:07:21;;;;;;;0.60;0.40;;;14.70;73.60;;;;;;5061644;28;20032;-77
2021/06/23 01:09:46;;;;;;;0.50;0.30;;;14.70;73.90;;;;;;5076402;28;20024;-77
2021/06/23 01:12:27;;;;;;;0.50;0.30;;;14.70;73.90;;;;;;5077710;28;20024;-77
2021/06/23 01:14:53;;;;;;;;;;;14.70;73.80;;;;;;5058135;28;20025;-77
2021/06/23 01:17:20;;;;;;;0.50;0.30;;;14.70;73.90;;;;;;5057483;28;19916;-77
2021/06/23 01:19:48;;;;;;;0.60;0.40;;;14.70;73.80;;;;;;5057446;28;20028;-77
2021/06/23 01:22:16;;;;;;;0.38;0.38;;;14.70;73.60;;;;;;5057473;28;20031;-77
2021/06/23 01:24:43;;;;;;;0.50;0.35;;;14.70;73.70;;;;;;5063152;28;20463;-77
2021/06/23 01:27:10;;;;;;;0.47;0.40;;;14.70;73.40;;;;;;5075645;28;20124;-77
2021/06/23 01:29:37;;;;;;;0.30;0.30;;;14.70;73.80;;;;;;5059481;28;20453;-77
2021/06/23 01:32:03;;;;;;;0.43;0.40;;;14.70;73.80;;;;;;5066683;28;20352;-77
2021/06/23 01:34:28;;;;;;;0.70;0.40;;;14.70;74.00;;;;;;5055809;28;20051;-77
2021/06/23 01:36:54;;;;;;;0.43;0.30;;;14.70;73.70;;;;;;5057172;28;20025;-77
2021/06/23 01:39:20;;;;;;;0.30;0.30;;;14.70;73.50;;;;;;5070104;28;20067;-77
2021/06/23 01:41:45;;;;;;;0.50;0.40;;;14.70;73.60;;;;;;5057097;28;20428;-77
2021/06/23 01:44:11;;;;;;;0.68;0.45;;;14.80;73.50;;;;;;5057137;28;20032;-77
2021/06/23 01:46:37;;;;;;;0.50;0.40;;;14.70;73.50;;;;;;5060279;28;20107;-77
2021/06/23 01:49:02;;;;;;;0.70;0.30;;;14.70;73.70;;;;;;5075548;28;20386;-76
2021/06/23 01:51:28;;;;;;;0.60;0.30;;;14.60;73.50;;;;;;5077010;28;20027;-76
2021/06/23 01:53:54;;;;;;;0.47;0.40;;;14.70;73.50;;;;;;5076868;28;20033;-77
2021/06/23 01:56:19;;;;;;;0.47;0.40;;;14.70;73.40;;;;;;5064334;28;20040;-77
2021/06/23 01:58:45;;;;;;;0.73;0.40;;;14.70;73.50;;;;;;5064956;28;20027;-76
2021/06/23 02:01:39;;;;;;;0.40;0.32;;;14.70;73.50;;;;;;5097046;28;20094;-76
2021/06/23 02:04:28;;;;;;;0.50;0.40;;;14.60;73.40;;;;;;5095493;28;20078;-77
2021/06/23 02:07:12;;;;;;;0.60;0.40;;;14.60;73.20;;;;;;5048405;28;20095;-77
2021/06/23 02:10:16;;;;;;;0.43;0.40;;;14.70;73.50;;;;;;5055127;28;20025;-77
2021/06/23 02:13:21;;;;;;;0.60;0.40;;;14.70;73.50;;;;;;5056595;28;20040;-77
2021/06/23 02:15:49;;;;;;;0.40;0.35;;;14.60;74.00;;;;;;5056492;28;20390;-77
2021/06/23 02:18:15;;;;;;;0.40;0.30;;;14.60;73.40;;;;;;5073396;28;20392;-77
2021/06/23 02:20:42;;;;;;;0.40;0.35;;;14.60;73.60;;;;;;5076233;28;20074;-77
2021/06/23 02:23:13;;;;;;;0.38;0.32;;;14.60;73.50;;;;;;5074717;28;20040;-77
2021/06/23 02:25:38;;;;;;;0.40;0.30;;;14.60;73.80;;;;;;5056415;28;20102;-77
2021/06/23 02:28:05;;;;;;;0.60;0.40;;;14.60;73.60;;;;;;5056273;28;20116;-76
2021/06/23 02:30:31;;;;;;;0.50;0.40;;;14.60;73.90;;;;;;5056140;28;20069;-77
2021/06/23 02:32:57;;;;;;;0.50;0.30;;;14.60;73.80;;;;;;5055999;28;20032;-77
2021/06/23 02:35:29;;;;;;;0.50;0.40;;;14.60;73.70;;;;;;5056090;28;20024;-77
2021/06/23 02:37:58;;;;;;;0.75;0.50;;;14.60;73.90;;;;;;5055357;28;20033;-76
2021/06/23 02:40:24;;;;;;;0.60;0.40;;;14.60;73.70;;;;;;5056008;28;20033;-77
2021/06/23 02:42:50;;;;;;;0.77;0.40;;;14.60;73.90;;;;;;5055847;28;20032;-77
2021/06/23 02:45:16;;;;;;;0.57;0.40;;;14.50;74.20;;;;;;5056000;28;20037;-77
2021/06/23 02:47:41;;;;;;;0.50;0.40;;;14.50;74.20;;;;;;5055849;28;20075;-76
2021/06/23 02:50:08;;;;;;;0.60;0.47;;;14.50;74.30;;;;;;5055730;28;20033;-76
2021/06/23 02:52:35;;;;;;;0.40;0.40;;;14.40;74.40;;;;;;5055755;28;20083;-76
2021/06/23 02:55:05;;;;;;;0.50;0.40;;;14.40;74.50;;;;;;5055822;28;20454;-77
2021/06/23 02:57:32;;;;;;;0.50;0.40;;;14.40;74.40;;;;;;5055668;28;20041;-77
2021/06/23 02:59:59;;;;;;;0.40;0.40;;;14.40;74.40;;;;;;5084255;28;20050;-77
2021/06/23 03:02:27;;;;;;;0.47;0.35;;;14.40;74.70;;;;;;5071797;28;20041;-76
2021/06/23 03:04:53;;;;;;;0.40;0.30;;;14.40;74.70;;;;;;5071219;28;20021;-77
2021/06/23 03:07:19;;;;;;;0.30;0.30;;;14.40;74.60;;;;;;5055373;28;20048;-77
2021/06/23 03:09:45;;;;;;;0.47;0.47;;;14.40;74.70;;;;;;5055628;28;20112;-77
2021/06/23 03:12:13;;;;;;;0.50;0.40;;;14.40;74.80;;;;;;5070546;28;20506;-77
2021/06/23 03:14:39;;;;;;;0.52;0.40;;;14.40;74.60;;;;;;5070901;28;20047;-77
2021/06/23 03:17:05;;;;;;;0.40;0.38;;;14.30;74.70;;;;;;5070745;28;20139;-77
2021/06/23 03:19:32;;;;;;;0.40;0.40;;;14.30;74.90;;;;;;5055120;28;20041;-77
2021/06/23 03:22:03;;;;;;;0.50;0.40;;;14.30;75.10;;;;;;5055480;28;20036;-77
2021/06/23 03:24:29;;;;;;;0.50;0.40;;;14.30;75.10;;;;;;5055408;28;20495;-77
2021/06/23 03:26:54;;;;;;;0.55;0.40;;;14.30;75.30;;;;;;5055397;28;20060;-77
2021/06/23 03:29:29;;;;;;;0.73;0.50;;;14.30;75.40;;;;;;5075353;28;20104;-77
2021/06/23 03:31:56;;;;;;;0.60;0.43;;;14.30;75.40;;;;;;5074136;28;20020;-77
2021/06/23 03:34:22;;;;;;;0.60;0.38;;;14.30;75.20;;;;;;5067082;28;20178;-76
2021/06/23 03:36:47;;;;;;;0.47;0.40;;;14.40;75.50;;;;;;5055327;28;20125;-77
2021/06/23 03:39:13;;;;;;;0.85;0.50;;;14.40;75.50;;;;;;5054031;28;20028;-77
2021/06/23 03:41:39;;;;;;;0.50;0.40;;;14.30;75.60;;;;;;5067360;28;20033;-77
2021/06/23 03:44:04;;;;;;;0.50;0.40;;;14.40;75.60;;;;;;5055407;28;20104;-77
2021/06/23 03:46:30;;;;;;;0.93;0.57;;;14.40;75.60;;;;;;5054803;28;20040;-77
2021/06/23 03:48:57;;;;;;;0.70;0.50;;;14.30;75.70;;;;;;5055478;28;20021;-77
2021/06/23 03:51:23;;;;;;;0.70;0.40;;;14.40;75.50;;;;;;5059244;28;20021;-77
2021/06/23 03:53:49;;;;;;;0.50;0.40;;;14.40;75.70;;;;;;5059168;28;20083;-77
2021/06/23 03:56:15;;;;;;;0.65;0.40;;;14.40;75.70;;;;;;5059033;28;20037;-77
2021/06/23 03:58:42;;;;;;;0.57;0.40;;;14.30;75.70;;;;;;5081208;28;20059;-77
2021/06/23 04:01:08;;;;;;;0.40;0.30;;;14.30;75.80;;;;;;5088476;28;20040;-77
2021/06/23 04:03:34;;;;;;;0.63;0.55;;;14.30;76.00;;;;;;5059094;28;20126;-77
2021/06/23 04:05:59;;;;;;;0.68;0.38;;;14.30;76.00;;;;;;5074392;28;20058;-77
2021/06/23 04:08:25;;;;;;;0.82;0.40;;;14.30;76.20;;;;;;5074152;28;20025;-77
2021/06/23 04:10:51;;;;;;;0.52;0.43;;;14.30;76.00;;;;;;5058782;28;20013;-77
2021/06/23 04:13:17;;;;;;;0.40;0.30;;;14.30;76.00;;;;;;5058922;28;20024;-77
2021/06/23 04:15:42;;;;;;;0.40;0.30;;;14.40;76.00;;;;;;5058946;28;20703;-77
2021/06/23 04:18:08;;;;;;;0.43;0.32;;;14.30;75.90;;;;;;5058629;28;20377;-77
2021/06/23 04:20:34;;;;;;;0.50;0.40;;;14.40;76.00;;;;;;5072812;28;20135;-78
2021/06/23 04:22:59;;;;;;;0.32;0.30;;;14.30;76.00;;;;;;5058822;28;20063;-77
2021/06/23 04:25:25;;;;;;;0.70;0.40;;;14.40;75.90;;;;;;5058481;28;20033;-76
2021/06/23 04:27:51;;;;;;;0.60;0.40;;;14.30;75.90;;;;;;5058585;28;20033;-78
2021/06/23 04:30:17;;;;;;;0.32;0.30;;;14.40;75.90;;;;;;5058396;28;20483;-77
2021/06/23 04:32:43;;;;;;;0.52;0.40;;;14.40;75.90;;;;;;5058475;28;20110;-75
2021/06/23 04:35:10;;;;;;;0.60;0.40;;;14.40;76.00;;;;;;5058488;28;20025;-76
2021/06/23 04:37:38;;;;;;;0.50;0.40;;;14.40;75.80;;;;;;5073829;28;20040;-76
2021/06/23 04:40:06;;;;;;;0.40;0.40;;;14.40;76.10;;;;;;5058278;28;20032;-76
2021/06/23 04:42:32;;;;;;;0.40;0.32;;;14.50;75.90;;;;;;5073632;28;20025;-76
2021/06/23 04:44:58;;;;;;;0.40;0.40;;;14.40;76.10;;;;;;5058352;28;20025;-76
2021/06/23 04:47:24;;;;;;;0.57;0.47;;;14.50;76.00;;;;;;5064585;28;20028;-76
2021/06/23 04:49:49;;;;;;;0.55;0.40;;;14.50;76.00;;;;;;5078079;28;20036;-76
2021/06/23 04:52:15;;;;;;;0.40;0.30;;;14.40;76.10;;;;;;5076840;28;20027;-76
2021/06/23 04:54:41;;;;;;;0.52;0.35;;;14.40;76.50;;;;;;5068382;28;20471;-76
2021/06/23 04:57:07;;;;;;;0.70;0.50;;;14.50;76.40;;;;;;5057915;28;20096;-80
2021/06/23 04:59:32;;;;;;;0.57;0.40;;;14.50;76.10;;;;;;5078158;28;20020;-76
2021/06/23 05:01:58;;;;;;;0.70;0.40;;;14.50;76.20;;;;;;5081056;28;20032;-79
2021/06/23 05:04:24;;;;;;;0.70;0.50;;;14.60;76.10;;;;;;5073377;28;20047;-77
2021/06/23 05:06:50;;;;;;;0.52;0.32;;;14.60;76.00;;;;;;5057788;28;20029;-79
2021/06/23 05:09:15;;;;;;;0.70;0.45;;;14.70;76.10;;;;;;5073050;28;20628;-77
2021/06/23 05:11:41;;;;;;;0.40;0.32;;;14.70;75.90;;;;;;5057363;28;20017;-78
2021/06/23 05:14:08;;;;;;;0.50;0.40;;;14.70;75.70;;;;;;5057573;28;20188;-76
2021/06/23 05:16:36;;;;;;;0.40;0.40;;;14.70;75.70;;;;;;5072764;28;20049;-76
2021/06/23 05:19:02;;;;;;;0.50;0.40;;;14.80;75.80;;;;;;5057347;28;20052;-76
2021/06/23 05:21:31;;;;;;;0.50;0.40;;;14.90;75.70;;;;;;5057210;28;20032;-75
2021/06/23 05:23:57;;;;;;;0.40;0.30;;;14.90;75.70;;;;;;5058827;28;20028;-76
2021/06/23 05:26:22;;;;;;;0.70;0.40;;;15.00;75.40;;;;;;5056178;28;20021;-75
2021/06/23 05:28:48;;;;;;;0.57;0.40;;;15.00;75.20;;;;;;5066716;28;20025;-75
2021/06/23 05:31:13;;;;;;;0.60;0.40;;;15.10;75.10;;;;;;5076003;28;20039;-79
2021/06/23 05:33:39;;;;;;;0.55;0.40;;;15.10;75.10;;;;;;5062271;28;20029;-79
2021/06/23 05:36:05;;;;;;;0.47;0.30;;;15.10;75.10;;;;;;5066966;28;20556;-79
2021/06/23 05:38:30;;;;;;;0.57;0.40;;;15.10;75.00;;;;;;5077116;28;20064;-79
2021/06/23 05:40:56;;;;;;;0.63;0.32;;;15.10;75.30;;;;;;5075647;28;20032;-80
2021/06/23 05:43:22;;;;;;;0.50;0.40;;;15.10;75.50;;;;;;5075711;28;20032;-78
2021/06/23 05:45:47;;;;;;;0.68;0.43;;;15.10;75.20;;;;;;5071241;28;20037;-79
2021/06/23 05:48:13;;;;;;;0.52;0.40;;;15.10;75.50;;;;;;5055969;28;20025;-77
2021/06/23 05:50:41;;;;;;;0.60;0.50;;;15.20;75.30;;;;;;5071928;28;20051;-80
2021/06/23 05:53:07;;;;;;;0.45;0.38;;;15.20;75.20;;;;;;5072635;28;20055;-79
2021/06/23 05:55:33;;;;;;;0.57;0.40;;;15.20;75.10;;;;;;5070698;28;20029;-79
2021/06/23 05:57:58;;;;;;;0.40;0.30;;;15.20;75.20;;;;;;5056151;28;20024;-79
2021/06/23 06:00:25;;;;;;;0.40;0.30;;;15.30;75.10;;;;;;5089353;28;20778;-79
2021/06/23 06:02:51;;;;;;;0.68;0.43;;;15.40;74.40;;;;;;5056621;28;20146;-80
2021/06/23 06:05:17;;;;;;;0.60;0.50;;;15.40;74.50;;;;;;5055164;28;20029;-79
2021/06/23 06:07:43;;;;;;;0.50;0.38;;;15.50;74.10;;;;;;5056494;28;20110;-79
2021/06/23 06:10:10;;;;;;;0.40;0.30;;;15.60;74.20;;;;;;5072944;28;20085;-79
2021/06/23 06:12:36;;;;;;;0.80;0.40;;;15.70;73.80;;;;;;5070727;28;20476;-79
2021/06/23 06:15:03;;;;;;;0.80;0.35;;;15.80;73.60;;;;;;5056414;28;20021;-79
2021/06/23 06:17:29;;;;;;;0.43;0.30;;;15.80;73.10;;;;;;5058395;28;20537;-79
2021/06/23 06:19:55;;;;;;;0.60;0.40;;;15.80;73.30;;;;;;5055978;28;20076;-79
2021/06/23 06:22:20;;;;;;;0.45;0.30;;;15.80;73.20;;;;;;5056227;28;20066;-79
2021/06/23 06:24:46;;;;;;;0.60;0.40;;;15.90;73.20;;;;;;5056439;28;20064;-79
2021/06/23 06:27:12;;;;;;;0.55;0.40;;;16.00;72.90;;;;;;5071521;28;20025;-79
2021/06/23 06:29:37;;;;;;;0.60;0.40;;;16.10;72.50;;;;;;5063558;28;20368;-79
2021/06/23 06:32:04;;;;;;;0.40;0.30;;;16.20;72.10;;;;;;5074475;28;20115;-79
2021/06/23 06:34:29;;;;;;;0.45;0.30;;;16.30;71.40;;;;;;5074506;28;20034;-79
2021/06/23 06:36:55;;;;;;;0.50;0.30;;;16.30;71.20;;;;;;5070763;28;20111;-79
2021/06/23 06:39:20;;;;;;;0.30;0.30;;;16.30;71.00;;;;;;5059436;28;20041;-79
2021/06/23 06:41:46;;;;;;;0.50;0.30;;;16.30;71.10;;;;;;5074650;28;20395;-79
2021/06/23 06:44:12;;;;;;;0.60;0.40;;;16.20;71.00;;;;;;5076145;28;20035;-80
2021/06/23 06:46:37;;;;;;;1.00;0.50;;;16.20;71.30;;;;;;5074233;28;20075;-79
2021/06/23 06:49:04;;;;;;;0.82;0.45;;;16.20;71.20;;;;;;5064248;28;20036;-79
2021/06/23 06:51:30;;;;;;;0.40;0.30;;;16.30;71.50;;;;;;5071015;28;20116;-81
2021/06/23 06:53:56;;;;;;;0.50;0.40;;;16.30;71.50;;;;;;5055880;28;20066;-81
2021/06/23 06:56:22;;;;;;;0.75;0.50;;;16.40;71.50;;;;;;5065647;28;20025;-81
2021/06/23 06:58:47;;;;;;;0.65;0.40;;;16.50;71.10;;;;;;5076212;28;20035;-81
2021/06/23 07:01:13;;;;;;;0.75;0.50;;;16.70;70.80;;;;;;5094237;28;20024;-81
2021/06/23 07:03:39;;;;;;;0.85;0.40;;;16.90;70.10;;;;;;5072395;28;20383;-81
2021/06/23 08:10:08;;;;;;;0.57;0.30;;;21.30;53.70;;;;;;5111023;28;20038;-78
2021/06/23 08:15:18;;;;;;;0.20;0.10;;;21.00;56.60;;;;;;5092604;28;20024;-79
2021/06/23 08:17:43;;;;;;;0.45;0.20;;;20.90;56.90;;;;;;5105392;28;20035;-78
2021/06/23 08:20:10;;;;;;;0.40;0.20;;;20.60;57.20;;;;;;5112363;28;20020;-78
2021/06/23 08:22:35;;;;;;;0.40;0.20;;;20.30;57.50;;;;;;5106232;28;20033;-78
2021/06/23 08:25:01;;;;;;;0.52;0.25;;;20.20;59.70;;;;;;5090979;28;20044;-78
2021/06/23 08:27:27;;;;;;;0.32;0.30;;;19.90;59.60;;;;;;5090697;28;20040;-78
2021/06/23 08:29:53;;;;;;;0.65;0.30;;;20.00;59.60;;;;;;5090626;28;20109;-78
2021/06/23 08:32:18;;;;;;;0.40;0.20;;;20.00;59.60;;;;;;5090585;28;20095;-78
2021/06/23 08:34:44;;;;;;;0.30;0.20;;;20.00;59.20;;;;;;5090268;28;20032;-79
2021/06/23 08:37:10;;;;;;;0.32;0.20;;;20.00;59.90;;;;;;5091756;28;20087;-79
2021/06/23 08:39:35;;;;;;;0.65;0.30;;;19.90;59.90;;;;;;5091516;28;20028;-79
2021/06/23 08:42:01;;;;;;;0.63;0.30;;;19.80;60.00;;;;;;5091669;28;20032;-79
2021/06/23 08:44:27;;;;;;;0.20;0.10;;;19.70;60.20;;;;;;5108727;28;20020;-79
2021/06/23 08:46:53;;;;;;;0.43;0.20;;;19.60;61.00;;;;;;5091432;28;20031;-79
2021/06/23 08:49:19;;;;;;;0.50;0.30;;;19.40;60.20;;;;;;5091548;28;20039;-79
2021/06/23 08:51:45;;;;;;;0.50;0.22;;;19.50;60.60;;;;;;5090423;28;20029;-79
2021/06/23 08:54:12;;;;;;;0.50;0.30;;;19.50;60.50;;;;;;5100984;28;20023;-79
2021/06/23 08:56:38;;;;;;;0.40;0.20;;;19.70;60.70;;;;;;5111711;28;20075;-79
2021/06/23 08:59:04;;;;;;;0.60;0.38;;;19.90;60.20;;;;;;5118398;28;20030;-79
2021/06/23 09:01:33;;;;;;;0.40;0.22;;;20.10;60.20;;;;;;5093199;28;20089;-79
2021/06/23 09:04:18;;;;;;;0.60;0.30;;;20.30;59.30;;;;;;5106999;28;20024;-79
2021/06/23 09:06:51;;;;;;;0.35;0.20;;;20.50;59.10;;;;;;5100576;28;20037;-79
2021/06/23 09:09:27;;;;;;;0.45;0.20;;;20.50;59.10;;;;;;5077875;28;20033;-80
2021/06/23 09:11:59;;;;;;;0.45;0.25;;;20.60;59.00;;;;;;5077597;28;20541;-79
2021/06/23 09:14:30;;;;;;;0.32;0.20;;;20.80;59.00;;;;;;5077887;28;20030;-79
2021/06/23 09:17:09;;;;;;;0.45;0.22;;;20.90;57.30;;;;;;5077476;28;20029;-79
2021/06/23 09:19:36;;;;;;;1.38;0.28;;;21.20;57.70;;;;;;5095649;28;20486;-79
2021/06/23 09:22:04;;;;;;;0.40;0.20;;;21.30;56.90;;;;;;5087426;28;20025;-79
2021/06/23 09:24:42;;;;;;;0.30;0.20;;;21.70;56.20;;;;;;5090951;28;20418;-79
2021/06/23 09:27:19;;;;;;;0.40;0.20;;;21.90;56.10;;;;;;5092153;28;20024;-79
2021/06/23 09:29:45;;;;;;;0.50;0.20;;;22.20;54.70;;;;;;5077447;28;20074;-79
2021/06/23 09:32:11;;;;;;;0.32;0.20;;;22.20;54.50;;;;;;5095515;28;20490;-79
2021/06/23 09:34:42;;;;;;;0.77;0.32;;;22.20;53.70;;;;;;5097194;28;20032;-78
2021/06/23 09:37:28;;;;;;;0.32;0.20;;;22.10;54.90;;;;;;5097764;28;20095;-79
2021/06/23 09:40:15;;;;;;;0.30;0.20;;;21.80;54.70;;;;;;5088628;28;20021;-79
2021/06/23 09:42:50;;;;;;;0.38;0.20;;;21.40;54.70;;;;;;5080429;28;20108;-80
2021/06/23 09:45:17;;;;;;;0.40;0.20;;;21.20;56.00;;;;;;5097035;28;20081;-80
2021/06/23 09:47:45;;;;;;;0.40;0.30;;;20.90;57.20;;;;;;5096080;28;20027;-80
2021/06/23 09:50:22;;;;;;;0.50;0.22;;;20.70;57.30;;;;;;5088439;28;20098;-80
2021/06/23 09:53:08;;;;;;;0.60;0.30;;;20.50;57.80;;;;;;5077410;28;20028;-80
2021/06/23 09:55:38;;;;;;;0.40;0.20;;;20.30;58.10;;;;;;5091564;28;20055;-80
2021/06/23 09:58:10;;;;;;;0.35;0.20;;;20.20;58.50;;;;;;5096965;28;20027;-80
2021/06/23 10:01:05;;;;;;;0.50;0.30;;;20.10;58.10;;;;;;5116494;28;20023;-80
2021/06/23 10:03:34;;;;;;;0.40;0.30;;;20.30;57.30;;;;;;5103675;28;20092;-80
2021/06/23 10:06:21;;;;;;;0.45;0.30;;;20.90;57.40;;;;;;5081169;28;20526;-81
2021/06/23 10:08:47;;;;;;;0.20;0.20;;;21.70;54.30;;;;;;5095724;28;20029;-81
2021/06/23 10:11:14;;;;;;;0.40;0.20;;;21.90;53.80;;;;;;5095362;28;20046;-81
2021/06/23 10:13:40;;;;;;;0.30;0.20;;;21.90;53.80;;;;;;5095923;28;20028;-81
2021/06/23 10:16:06;;;;;;;0.47;0.20;;;21.90;54.10;;;;;;5096700;28;20080;-80
2021/06/23 10:18:33;;;;;;;0.55;0.20;;;21.80;54.00;;;;;;5095665;28;20482;-82
2021/06/23 10:20:58;;;;;;;0.20;0.10;;;21.50;55.30;;;;;;5081738;28;20058;-78
2021/06/23 10:23:24;;;;;;;0.40;0.20;;;21.20;55.40;;;;;;5076484;28;20021;-78
2021/06/23 10:25:51;;;;;;;0.55;0.22;;;20.90;56.00;;;;;;5076282;28;20445;-79
2021/06/23 10:28:19;;;;;;;0.32;0.20;;;20.70;57.20;;;;;;5075479;28;20092;-79
2021/06/23 10:30:46;;;;;;;0.70;0.30;;;20.50;57.10;;;;;;5075930;28;20041;-78
2021/06/23 10:33:13;;;;;;;0.30;0.20;;;20.50;57.50;;;;;;5091652;28;20024;-78
2021/06/23 10:35:39;;;;;;;0.35;0.20;;;20.30;57.80;;;;;;5083604;28;20111;-78
2021/06/23 10:38:06;;;;;;;0.40;0.20;;;20.10;58.70;;;;;;5095738;28;20043;-78
2021/06/23 10:40:32;;;;;;;0.40;0.30;;;19.90;59.40;;;;;;5088279;28;20024;-78
2021/06/23 10:43:15;;;;;;;0.28;0.20;;;19.80;60.10;;;;;;5091058;28;20028;-79
2021/06/23 10:45:45;;;;;;;0.38;0.30;;;19.70;60.10;;;;;;5075533;28;20040;-79
2021/06/23 10:48:11;;;;;;;;;;;19.50;59.50;;;;;;5075967;28;20021;-79
2021/06/23 10:50:37;;;;;;;0.55;0.30;;;19.50;59.70;;;;;;5075246;28;20413;-79
2021/06/23 10:53:24;;;;;;;0.63;0.35;;;19.40;59.90;;;;;;5075807;28;20050;-79
2021/06/23 10:55:49;;;;;;;0.32;0.22;;;19.30;60.20;;;;;;5075424;28;20045;-79
2021/06/23 10:58:15;;;;;;;0.30;0.20;;;19.30;59.40;;;;;;5094303;28;20031;-79
2021/06/23 11:00:46;;;;;;;0.40;0.20;;;19.30;60.10;;;;;;5075616;28;20089;-79
2021/06/23 11:03:17;;;;;;;0.47;0.30;;;19.30;60.00;;;;;;5075851;28;20407;-79
2021/06/23 11:05:45;;;;;;;0.30;0.20;;;19.30;60.20;;;;;;5075535;28;20031;-79
2021/06/23 11:08:35;;;;;;;0.22;0.20;;;19.40;59.80;;;;;;5086038;28;20032;-79
2021/06/23 11:11:08;;;;;;;0.30;0.20;;;19.50;59.50;;;;;;5095754;28;20106;-79
2021/06/23 11:13:38;;;;;;;0.30;0.20;;;19.60;59.00;;;;;;5082576;28;20033;-79
2021/06/23 11:16:06;;;;;;;0.28;0.20;;;19.60;58.90;;;;;;5075746;28;20020;-79
2021/06/23 11:18:38;;;;;;;0.38;0.25;;;19.50;58.90;;;;;;5085162;28;20028;-79
2021/06/23 11:21:15;;;;;;;0.45;0.20;;;19.50;59.60;;;;;;5095720;28;20024;-79
2021/06/23 11:23:58;;;;;;;0.70;0.28;;;19.60;58.80;;;;;;5095126;28;20023;-78
2021/06/23 11:26:24;;;;;;;0.35;0.25;;;19.80;58.20;;;;;;5075286;28;20020;-79
2021/06/23 11:28:54;;;;;;;0.32;0.20;;;20.30;57.80;;;;;;5091082;28;20032;-79
2021/06/23 11:31:21;;;;;;;0.50;0.20;;;20.70;57.30;;;;;;5095376;28;20082;-79
2021/06/23 11:33:55;;;;;;;0.40;0.20;;;21.10;55.10;;;;;;5082544;28;20040;-79
2021/06/23 11:36:21;;;;;;;0.60;0.30;;;21.30;55.20;;;;;;5075073;28;20025;-79
2021/06/23 11:38:47;;;;;;;0.43;0.20;;;21.40;53.90;;;;;;5075861;28;20146;-79
2021/06/23 11:41:15;;;;;;;0.38;0.20;;;21.60;54.30;;;;;;5095507;28;20612;-79
2021/06/23 11:43:41;;;;;;;0.20;0.20;;;21.60;53.10;;;;;;5094002;28;20066;-79
2021/06/23 11:46:07;;;;;;;0.50;0.20;;;21.80;53.30;;;;;;5095455;28;20028;-79
2021/06/23 11:48:36;;;;;;;0.50;0.20;;;21.90;53.30;;;;;;5095056;28;20024;-79
2021/06/23 11:51:02;;;;;;;0.52;0.30;;;22.00;53.70;;;;;;5079698;28;20024;-79
2021/06/23 11:53:27;;;;;;;0.55;0.20;;;22.20;52.60;;;;;;5075289;28;20126;-79
2021/06/23 11:55:53;;;;;;;0.20;0.20;;;22.20;52.30;;;;;;5076588;28;20044;-81
2021/06/23 11:58:19;;;;;;;0.50;0.20;;;22.30;52.20;;;;;;5095373;28;20068;-79
2021/06/23 12:00:45;;;;;;;0.20;0.10;;;22.30;51.20;;;;;;5114673;28;20024;-79
2021/06/23 12:03:17;;;;;;;0.40;0.15;;;22.40;52.60;;;;;;5114727;28;20386;-79
2021/06/23 12:05:43;;;;;;;0.25;0.10;;;22.40;52.40;;;;;;5094646;28;20036;-79
2021/06/23 12:08:08;;;;;;;0.50;0.20;;;22.60;52.20;;;;;;5095107;28;20457;-79
2021/06/23 12:10:36;;;;;;;0.20;0.10;;;22.70;50.90;;;;;;5080993;28;20044;-78
2021/06/23 12:13:03;;;;;;;0.25;0.10;;;22.90;51.40;;;;;;5092367;28;20383;-79
2021/06/23 12:15:29;;;;;;;0.20;0.10;;;22.80;50.90;;;;;;5094896;28;20028;-79
2021/06/23 12:18:05;;;;;;;0.28;0.10;;;22.80;51.20;;;;;;5094878;28;20782;-79
2021/06/23 12:20:32;;;;;;;0.20;0.10;;;22.70;50.30;;;;;;5076988;28;20682;-79
2021/06/23 12:23:00;;;;;;;0.17;0.10;;;22.40;51.50;;;;;;5074436;28;20340;-79
2021/06/23 12:25:34;;;;;;;0.47;0.25;;;22.20;52.40;;;;;;5080218;28;20466;-78
2021/06/23 12:28:02;;;;;;;0.35;0.20;;;21.80;53.90;;;;;;5075728;28;20953;-79
2021/06/23 12:30:28;;;;;;;0.57;0.20;;;21.30;53.60;;;;;;5093372;28;20918;-79
2021/06/23 12:32:59;;;;;;;0.35;0.28;;;21.00;54.50;;;;;;5079000;28;20553;-79
2021/06/23 12:35:26;;;;;;;0.52;0.20;;;20.80;54.60;;;;;;5074601;28;20067;-78
2021/06/23 12:37:53;;;;;;;0.30;0.20;;;20.90;54.30;;;;;;5074533;28;20807;-79
2021/06/23 12:40:19;;;;;;;0.20;0.20;;;20.90;54.40;;;;;;5091014;28;20027;-79
2021/06/23 12:42:45;;;;;;;0.50;0.28;;;20.90;54.80;;;;;;5087813;28;20059;-79
2021/06/23 12:45:11;;;;;;;0.35;0.20;;;20.80;54.50;;;;;;5086086;28;20032;-78
2021/06/23 12:47:37;;;;;;;0.10;0.10;;;20.80;54.60;;;;;;5083783;28;20029;-78
2021/06/23 12:50:04;;;;;;;0.32;0.20;;;20.80;55.60;;;;;;5077848;28;20024;-78
2021/06/23 12:52:30;;;;;;;0.40;0.20;;;20.80;55.50;;;;;;5078189;28;20119;-78
2021/06/23 12:54:56;;;;;;;0.25;0.20;;;20.90;54.80;;;;;;5078769;28;20129;-78
2021/06/23 12:57:22;;;;;;;0.35;0.20;;;21.10;54.50;;;;;;5077585;28;20036;-79
2021/06/23 12:59:48;;;;;;;0.38;0.20;;;21.30;54.60;;;;;;5109479;28;20023;-78
2021/06/23 13:02:14;;;;;;;0.30;0.20;;;21.50;54.20;;;;;;5095900;28;20047;-79
2021/06/23 13:04:41;;;;;;;0.30;0.20;;;21.70;53.70;;;;;;5079422;28;20582;-79
2021/06/23 13:07:06;;;;;;;0.17;0.15;;;22.00;52.80;;;;;;5094465;28;20024;-79
2021/06/23 13:09:32;;;;;;;0.35;0.20;;;22.30;51.00;;;;;;5078260;28;20031;-79
2021/06/23 13:12:00;;;;;;;0.52;0.22;;;22.40;50.20;;;;;;5077721;28;20796;-79
2021/06/23 13:14:26;;;;;;;0.35;0.20;;;22.70;49.70;;;;;;5077824;28;20024;-78
2021/06/23 13:16:52;;;;;;;0.47;0.20;;;23.00;50.40;;;;;;5082929;28;20032;-79
2021/06/23 13:19:18;;;;;;;0.20;0.10;;;23.30;48.80;;;;;;5097368;28;20027;-77
2021/06/23 13:21:43;;;;;;;0.15;0.10;;;23.40;47.80;;;;;;5084219;28;20028;-77
2021/06/23 13:24:09;;;;;;;0.63;0.20;;;23.30;49.30;;;;;;5077992;28;20028;-77
2021/06/23 13:26:35;;;;;;;0.30;0.20;;;23.00;48.60;;;;;;5077418;28;20021;-77
2021/06/23 13:29:01;;;;;;;0.25;0.10;;;22.70;49.10;;;;;;5079857;28;20028;-77
2021/06/23 13:31:26;;;;;;;0.40;0.20;;;22.40;50.40;;;;;;5087768;28;20031;-77
2021/06/23 13:33:52;;;;;;;0.60;0.20;;;22.10;51.20;;;;;;5085188;28;20463;-77
2021/06/23 13:36:17;;;;;;;0.30;0.10;;;21.90;51.80;;;;;;5086273;28;20020;-77
2021/06/23 13:38:43;;;;;;;0.50;0.20;;;21.70;51.90;;;;;;5086103;28;20024;-77
2021/06/23 13:41:09;;;;;;;0.40;0.20;;;21.40;52.90;;;;;;5085933;28;20020;-77
2021/06/23 13:43:36;;;;;;;0.65;0.20;;;21.30;53.30;;;;;;5080020;28;21834;-80
2021/06/23 13:46:03;;;;;;;0.40;0.20;;;21.20;53.30;;;;;;5083377;28;20027;-77
2021/06/23 13:48:29;;;;;;;0.35;0.20;;;21.10;53.50;;;;;;5085544;28;20103;-75
2021/06/23 13:50:55;;;;;;;0.40;0.20;;;21.10;54.40;;;;;;5085526;28;20451;-76
2021/06/23 13:53:20;;;;;;;0.40;0.20;;;21.00;53.80;;;;;;5086184;28;20402;-76
2021/06/23 13:55:46;;;;;;;0.30;0.20;;;21.00;53.90;;;;;;5084145;28;20050;-77
2021/06/23 13:58:12;;;;;;;0.32;0.20;;;21.10;54.20;;;;;;5087152;28;20016;-76